sensor_id;sensor_type;location;lat;lon;timestamp;pressure;altitude;pressure_sealevel;temperature;humidity
61769;BME280;47669;48.712;9.016;2023-12-29T00:01:44;96677.84;;;7.49;88.21
61769;BME280;47669;48.712;9.016;2023-12-29T00:04:09;96671.50;;;7.44;88.69
61769;BME280;47669;48.712;9.016;2023-12-29T00:06:39;96669.22;;;7.41;88.93
61769;BME280;47669;48.712;9.016;2023-12-29T00:09:04;96667.31;;;7.49;87.98
61769;BME280;47669;48.712;9.016;2023-12-29T00:11:30;96664.88;;;7.48;88.11
61769;BME280;47669;48.712;9.016;2023-12-29T00:13:55;96669.69;;;7.44;88.11
61769;BME280;47669;48.712;9.016;2023-12-29T00:16:20;96671.50;;;7.44;88.37
61769;BME280;47669;48.712;9.016;2023-12-29T00:18:46;96657.34;;;7.45;88.22
61769;BME280;47669;48.712;9.016;2023-12-29T00:21:11;96663.16;;;7.40;88.30
61769;BME280;47669;48.712;9.016;2023-12-29T00:23:36;96657.72;;;7.42;88.33
61769;BME280;47669;48.712;9.016;2023-12-29T00:26:01;96660.72;;;7.39;88.59
61769;BME280;47669;48.712;9.016;2023-12-29T00:28:27;96677.69;;;7.36;88.69
61769;BME280;47669;48.712;9.016;2023-12-29T00:30:52;96681.69;;;7.32;89.23
61769;BME280;47669;48.712;9.016;2023-12-29T00:33:17;96671.63;;;7.36;88.86
61769;BME280;47669;48.712;9.016;2023-12-29T00:35:43;96682.06;;;7.29;89.19
61769;BME280;47669;48.712;9.016;2023-12-29T00:38:08;96679.13;;;7.39;88.52
61769;BME280;47669;48.712;9.016;2023-12-29T00:40:33;96666.41;;;7.42;87.81
61769;BME280;47669;48.712;9.016;2023-12-29T00:43:02;96668.25;;;7.42;88.30
61769;BME280;47669;48.712;9.016;2023-12-29T00:45:28;96675.31;;;7.41;88.07
61769;BME280;47669;48.712;9.016;2023-12-29T00:47:59;96657.09;;;7.40;88.28
61769;BME280;47669;48.712;9.016;2023-12-29T00:50:25;96663.91;;;7.34;87.99
61769;BME280;47669;48.712;9.016;2023-12-29T00:52:51;96671.22;;;7.39;87.55
61769;BME280;47669;48.712;9.016;2023-12-29T00:55:16;96668.59;;;7.39;87.97
61769;BME280;47669;48.712;9.016;2023-12-29T00:57:42;96669.63;;;7.38;88.09
61769;BME280;47669;48.712;9.016;2023-12-29T01:00:10;96672.41;;;7.36;88.12
61769;BME280;47669;48.712;9.016;2023-12-29T01:02:35;96689.38;;;7.33;88.19
61769;BME280;47669;48.712;9.016;2023-12-29T01:05:01;96682.31;;;7.34;87.67
61769;BME280;47669;48.712;9.016;2023-12-29T01:07:26;96686.31;;;7.30;88.36
61769;BME280;47669;48.712;9.016;2023-12-29T01:09:51;96683.88;;;7.28;88.66
61769;BME280;47669;48.712;9.016;2023-12-29T01:12:16;96688.94;;;7.30;88.39
61769;BME280;47669;48.712;9.016;2023-12-29T01:14:42;96692.59;;;7.29;88.20
61769;BME280;47669;48.712;9.016;2023-12-29T01:17:07;96683.63;;;7.23;88.70
61769;BME280;47669;48.712;9.016;2023-12-29T01:19:32;96686.88;;;7.25;88.48
61769;BME280;47669;48.712;9.016;2023-12-29T01:21:58;96676.53;;;7.24;89.02
61769;BME280;47669;48.712;9.016;2023-12-29T01:24:23;96673.72;;;7.25;88.36
61769;BME280;47669;48.712;9.016;2023-12-29T01:26:48;96672.75;;;7.26;88.34
61769;BME280;47669;48.712;9.016;2023-12-29T01:29:13;96684.69;;;7.29;88.36
61769;BME280;47669;48.712;9.016;2023-12-29T01:31:39;96672.53;;;7.28;87.98
61769;BME280;47669;48.712;9.016;2023-12-29T01:34:04;96682.06;;;7.29;87.80
61769;BME280;47669;48.712;9.016;2023-12-29T01:36:30;96679.63;;;7.27;87.96
61769;BME280;47669;48.712;9.016;2023-12-29T01:38:55;96669.56;;;7.31;87.97
61769;BME280;47669;48.712;9.016;2023-12-29T01:41:20;96672.41;;;7.36;87.37
61769;BME280;47669;48.712;9.016;2023-12-29T01:46:31;96668.41;;;7.40;87.27
61769;BME280;47669;48.712;9.016;2023-12-29T01:48:58;96687.63;;;7.41;87.22
61769;BME280;47669;48.712;9.016;2023-12-29T01:51:25;96675.50;;;7.40;87.31
61769;BME280;47669;48.712;9.016;2023-12-29T01:53:52;96674.75;;;7.46;86.40
61769;BME280;47669;48.712;9.016;2023-12-29T01:56:19;96675.94;;;7.43;86.74
61769;BME280;47669;48.712;9.016;2023-12-29T01:58:45;96665.84;;;7.47;86.22
61769;BME280;47669;48.712;9.016;2023-12-29T02:01:14;96671.72;;;7.49;86.54
61769;BME280;47669;48.712;9.016;2023-12-29T02:03:40;96655.34;;;7.47;86.66
61769;BME280;47669;48.712;9.016;2023-12-29T02:06:06;96653.53;;;7.47;86.82
61769;BME280;47669;48.712;9.016;2023-12-29T02:08:33;96657.34;;;7.45;87.08
61769;BME280;47669;48.712;9.016;2023-12-29T02:10:58;96654.53;;;7.46;86.69
61769;BME280;47669;48.712;9.016;2023-12-29T02:13:24;96660.97;;;7.44;86.70
61769;BME280;47669;48.712;9.016;2023-12-29T02:15:52;96661.44;;;7.47;86.74
61769;BME280;47669;48.712;9.016;2023-12-29T02:18:18;96652.69;;;7.47;86.86
61769;BME280;47669;48.712;9.016;2023-12-29T02:20:44;96658.34;;;7.44;86.98
61769;BME280;47669;48.712;9.016;2023-12-29T02:23:09;96657.78;;;7.48;86.67
61769;BME280;47669;48.712;9.016;2023-12-29T02:25:35;96651.66;;;7.41;86.60
61769;BME280;47669;48.712;9.016;2023-12-29T02:28:04;96645.19;;;7.44;86.63
61769;BME280;47669;48.712;9.016;2023-12-29T02:33:04;96643.19;;;7.46;86.84
61769;BME280;47669;48.712;9.016;2023-12-29T02:35:33;96651.44;;;7.43;86.75
61769;BME280;47669;48.712;9.016;2023-12-29T02:38:00;96651.09;;;7.46;87.28
61769;BME280;47669;48.712;9.016;2023-12-29T02:40:26;96649.59;;;7.37;87.92
61769;BME280;47669;48.712;9.016;2023-12-29T02:42:51;96655.22;;;7.33;88.55
61769;BME280;47669;48.712;9.016;2023-12-29T02:45:17;96644.06;;;7.31;89.58
61769;BME280;47669;48.712;9.016;2023-12-29T02:47:43;96642.38;;;7.24;90.29
61769;BME280;47669;48.712;9.016;2023-12-29T02:50:09;96638.41;;;7.13;91.28
61769;BME280;47669;48.712;9.016;2023-12-29T02:52:35;96627.47;;;7.09;91.67
61769;BME280;47669;48.712;9.016;2023-12-29T02:55:01;96632.16;;;7.14;91.70
61769;BME280;47669;48.712;9.016;2023-12-29T02:57:26;96625.28;;;7.13;91.92
61769;BME280;47669;48.712;9.016;2023-12-29T02:59:51;96629.72;;;7.12;92.53
61769;BME280;47669;48.712;9.016;2023-12-29T03:02:16;96625.28;;;7.13;92.04
61769;BME280;47669;48.712;9.016;2023-12-29T03:04:42;96622.41;;;7.08;92.40
61769;BME280;47669;48.712;9.016;2023-12-29T03:07:07;96620.41;;;7.10;92.63
61769;BME280;47669;48.712;9.016;2023-12-29T03:09:33;96618.75;;;7.09;92.92
61769;BME280;47669;48.712;9.016;2023-12-29T03:11:58;96629.03;;;7.04;92.79
61769;BME280;47669;48.712;9.016;2023-12-29T03:14:23;96622.84;;;7.11;92.84
61769;BME280;47669;48.712;9.016;2023-12-29T03:16:48;96624.22;;;7.07;92.57
61769;BME280;47669;48.712;9.016;2023-12-29T03:19:14;96612.69;;;7.08;92.59
61769;BME280;47669;48.712;9.016;2023-12-29T03:21:39;96621.03;;;7.12;92.63
61769;BME280;47669;48.712;9.016;2023-12-29T03:24:04;96614.75;;;7.13;93.37
61769;BME280;47669;48.712;9.016;2023-12-29T03:26:30;96610.06;;;7.08;93.70
61769;BME280;47669;48.712;9.016;2023-12-29T03:28:55;96609.50;;;7.13;93.48
61769;BME280;47669;48.712;9.016;2023-12-29T03:31:20;96608.25;;;7.09;93.99
61769;BME280;47669;48.712;9.016;2023-12-29T03:33:46;96610.25;;;7.07;93.83
61769;BME280;47669;48.712;9.016;2023-12-29T03:36:11;96599.31;;;7.03;94.41
61769;BME280;47669;48.712;9.016;2023-12-29T03:38:37;96588.97;;;7.02;94.04
61769;BME280;47669;48.712;9.016;2023-12-29T03:41:03;96600.13;;;7.04;94.59
61769;BME280;47669;48.712;9.016;2023-12-29T03:43:28;96594.63;;;6.99;94.40
61769;BME280;47669;48.712;9.016;2023-12-29T03:45:54;96585.91;;;6.98;94.68
61769;BME280;47669;48.712;9.016;2023-12-29T03:48:19;96603.44;;;6.91;95.34
61769;BME280;47669;48.712;9.016;2023-12-29T03:50:44;96603.81;;;6.88;95.09
61769;BME280;47669;48.712;9.016;2023-12-29T03:53:09;96598.09;;;6.84;95.58
61769;BME280;47669;48.712;9.016;2023-12-29T03:55:35;96594.03;;;6.82;95.98
61769;BME280;47669;48.712;9.016;2023-12-29T03:58:02;96605.09;;;6.77;96.52
61769;BME280;47669;48.712;9.016;2023-12-29T04:00:27;96606.97;;;6.83;96.08
61769;BME280;47669;48.712;9.016;2023-12-29T04:02:52;96605.09;;;6.77;96.65
61769;BME280;47669;48.712;9.016;2023-12-29T04:05:19;96605.91;;;6.78;96.65
61769;BME280;47669;48.712;9.016;2023-12-29T04:07:44;96604.09;;;6.78;97.15
61769;BME280;47669;48.712;9.016;2023-12-29T04:10:10;96594.03;;;6.82;96.62
61769;BME280;47669;48.712;9.016;2023-12-29T04:12:36;96601.09;;;6.81;96.43
61769;BME280;47669;48.712;9.016;2023-12-29T04:15:04;96599.47;;;6.80;96.71
61769;BME280;47669;48.712;9.016;2023-12-29T04:17:29;96600.47;;;6.79;97.46
61769;BME280;47669;48.712;9.016;2023-12-29T04:19:55;96598.47;;;6.81;97.30
61769;BME280;47669;48.712;9.016;2023-12-29T04:22:21;96596.91;;;6.87;96.46
61769;BME280;47669;48.712;9.016;2023-12-29T04:24:46;96594.69;;;6.84;97.17
61769;BME280;47669;48.712;9.016;2023-12-29T04:27:14;96603.38;;;6.84;96.98
61769;BME280;47669;48.712;9.016;2023-12-29T04:29:39;96603.72;;;6.81;97.57
61769;BME280;47669;48.712;9.016;2023-12-29T04:32:05;96593.84;;;6.83;98.06
61769;BME280;47669;48.712;9.016;2023-12-29T04:34:30;96591.66;;;6.87;97.70
61769;BME280;47669;48.712;9.016;2023-12-29T04:36:55;96591.78;;;6.79;98.29
61769;BME280;47669;48.712;9.016;2023-12-29T04:39:21;96589.25;;;6.70;99.16
61769;BME280;47669;48.712;9.016;2023-12-29T04:41:46;96590.91;;;6.71;99.35
61769;BME280;47669;48.712;9.016;2023-12-29T04:44:11;96589.06;;;6.72;98.91
61769;BME280;47669;48.712;9.016;2023-12-29T04:46:36;96590.44;;;6.68;99.30
61769;BME280;47669;48.712;9.016;2023-12-29T04:49:02;96590.09;;;6.71;99.46
61769;BME280;47669;48.712;9.016;2023-12-29T04:51:27;96585.66;;;6.71;99.71
61769;BME280;47669;48.712;9.016;2023-12-29T04:53:52;96590.25;;;6.69;100.00
61769;BME280;47669;48.712;9.016;2023-12-29T04:56:18;96584.38;;;6.67;99.23
61769;BME280;47669;48.712;9.016;2023-12-29T04:58:43;96591.00;;;6.63;99.61
61769;BME280;47669;48.712;9.016;2023-12-29T05:01:08;96592.09;;;6.69;99.51
61769;BME280;47669;48.712;9.016;2023-12-29T05:03:33;96596.50;;;6.68;100.00
61769;BME280;47669;48.712;9.016;2023-12-29T05:05:59;96588.19;;;6.65;100.00
61769;BME280;47669;48.712;9.016;2023-12-29T05:08:24;96585.38;;;6.66;100.00
61769;BME280;47669;48.712;9.016;2023-12-29T05:10:49;96589.06;;;6.72;100.00
61769;BME280;47669;48.712;9.016;2023-12-29T05:13:15;96591.13;;;6.77;100.00
61769;BME280;47669;48.712;9.016;2023-12-29T05:15:40;96588.34;;;6.78;100.00
61769;BME280;47669;48.712;9.016;2023-12-29T05:18:05;96591.84;;;6.85;99.45
61769;BME280;47669;48.712;9.016;2023-12-29T05:20:31;96596.47;;;6.83;99.60
61769;BME280;47669;48.712;9.016;2023-12-29T05:22:56;96599.16;;;6.90;99.66
61769;BME280;47669;48.712;9.016;2023-12-29T05:25:21;96589.78;;;6.81;100.00
61769;BME280;47669;48.712;9.016;2023-12-29T05:27:49;96592.69;;;6.86;100.00
61769;BME280;47669;48.712;9.016;2023-12-29T05:30:14;96589.16;;;6.79;100.00
61769;BME280;47669;48.712;9.016;2023-12-29T05:32:39;96592.22;;;6.82;100.00
61769;BME280;47669;48.712;9.016;2023-12-29T05:35:05;96585.59;;;6.86;100.00
61769;BME280;47669;48.712;9.016;2023-12-29T05:37:30;96593.22;;;6.81;100.00
61769;BME280;47669;48.712;9.016;2023-12-29T05:39:55;96595.66;;;6.83;100.00
61769;BME280;47669;48.712;9.016;2023-12-29T05:42:21;96582.53;;;6.83;100.00
61769;BME280;47669;48.712;9.016;2023-12-29T05:44:46;96586.16;;;6.82;100.00
61769;BME280;47669;48.712;9.016;2023-12-29T05:47:12;96590.16;;;6.78;100.00
61769;BME280;47669;48.712;9.016;2023-12-29T05:49:37;96597.03;;;6.79;100.00
61769;BME280;47669;48.712;9.016;2023-12-29T05:52:07;96599.38;;;6.88;100.00
61769;BME280;47669;48.712;9.016;2023-12-29T05:54:33;96608.06;;;6.89;100.00
61769;BME280;47669;48.712;9.016;2023-12-29T05:56:59;96594.34;;;6.93;100.00
61769;BME280;47669;48.712;9.016;2023-12-29T05:59:24;96594.53;;;6.92;100.00
61769;BME280;47669;48.712;9.016;2023-12-29T06:01:49;96598.63;;;6.95;100.00
61769;BME280;47669;48.712;9.016;2023-12-29T06:04:15;96611.19;;;6.99;100.00
61769;BME280;47669;48.712;9.016;2023-12-29T06:06:42;96606.41;;;7.03;100.00
61769;BME280;47669;48.712;9.016;2023-12-29T06:09:09;96611.66;;;7.03;100.00
61769;BME280;47669;48.712;9.016;2023-12-29T06:11:34;96613.91;;;7.06;100.00
61769;BME280;47669;48.712;9.016;2023-12-29T06:14:00;96603.94;;;7.01;100.00
61769;BME280;47669;48.712;9.016;2023-12-29T06:16:25;96606.75;;;7.00;100.00
61769;BME280;47669;48.712;9.016;2023-12-29T06:18:52;96602.06;;;6.95;100.00
61769;BME280;47669;48.712;9.016;2023-12-29T06:21:17;96603.66;;;6.96;100.00
61769;BME280;47669;48.712;9.016;2023-12-29T06:23:44;96610.19;;;7.00;100.00
61769;BME280;47669;48.712;9.016;2023-12-29T06:26:19;96601.50;;;7.00;100.00
61769;BME280;47669;48.712;9.016;2023-12-29T06:28:45;96598.88;;;7.00;100.00
61769;BME280;47669;48.712;9.016;2023-12-29T06:31:11;96601.88;;;6.97;100.00
61769;BME280;47669;48.712;9.016;2023-12-29T06:33:40;96602.75;;;7.04;100.00
61769;BME280;47669;48.712;9.016;2023-12-29T06:36:06;96603.56;;;7.04;100.00
61769;BME280;47669;48.712;9.016;2023-12-29T06:38:32;96604.41;;;7.05;100.00
61769;BME280;47669;48.712;9.016;2023-12-29T06:40:59;96599.13;;;7.05;100.00
61769;BME280;47669;48.712;9.016;2023-12-29T06:43:25;96596.69;;;7.03;100.00
61769;BME280;47669;48.712;9.016;2023-12-29T06:45:50;96592.00;;;6.99;100.00
61769;BME280;47669;48.712;9.016;2023-12-29T06:48:15;96595.88;;;7.03;100.00
61769;BME280;47669;48.712;9.016;2023-12-29T06:50:40;96597.25;;;6.99;100.00
61769;BME280;47669;48.712;9.016;2023-12-29T06:53:06;96590.25;;;7.06;100.00
61769;BME280;47669;48.712;9.016;2023-12-29T06:55:31;96592.06;;;7.05;100.00
61769;BME280;47669;48.712;9.016;2023-12-29T06:57:56;96592.63;;;7.01;100.00
61769;BME280;47669;48.712;9.016;2023-12-29T07:00:21;96588.81;;;7.03;100.00
61769;BME280;47669;48.712;9.016;2023-12-29T07:02:47;96588.25;;;7.08;100.00
61769;BME280;47669;48.712;9.016;2023-12-29T07:05:13;96591.06;;;7.06;100.00
61769;BME280;47669;48.712;9.016;2023-12-29T07:07:38;96594.88;;;7.04;100.00
61769;BME280;47669;48.712;9.016;2023-12-29T07:10:04;96597.50;;;7.04;100.00
61769;BME280;47669;48.712;9.016;2023-12-29T07:12:31;96603.38;;;7.06;100.00
61769;BME280;47669;48.712;9.016;2023-12-29T07:14:56;96595.69;;;7.04;100.00
61769;BME280;47669;48.712;9.016;2023-12-29T07:17:21;96591.25;;;7.05;100.00
61769;BME280;47669;48.712;9.016;2023-12-29T07:19:47;96585.31;;;7.18;100.00
61769;BME280;47669;48.712;9.016;2023-12-29T07:22:12;96583.63;;;7.10;100.00
61769;BME280;47669;48.712;9.016;2023-12-29T07:24:37;96591.06;;;7.06;100.00
61769;BME280;47669;48.712;9.016;2023-12-29T07:27:04;96585.44;;;7.09;100.00
61769;BME280;47669;48.712;9.016;2023-12-29T07:29:29;96596.38;;;7.13;100.00
61769;BME280;47669;48.712;9.016;2023-12-29T07:31:55;96587.03;;;7.10;100.00
61769;BME280;47669;48.712;9.016;2023-12-29T07:34:20;96589.06;;;7.08;100.00
61769;BME280;47669;48.712;9.016;2023-12-29T07:36:46;96589.72;;;7.17;100.00
61769;BME280;47669;48.712;9.016;2023-12-29T07:39:11;96604.00;;;7.08;100.00
61769;BME280;47669;48.712;9.016;2023-12-29T07:41:40;96601.63;;;7.13;100.00
61769;BME280;47669;48.712;9.016;2023-12-29T07:44:06;96606.88;;;7.13;100.00
61769;BME280;47669;48.712;9.016;2023-12-29T07:46:31;96598.56;;;7.09;100.00
61769;BME280;47669;48.712;9.016;2023-12-29T07:48:57;96589.94;;;7.16;100.00
61769;BME280;47669;48.712;9.016;2023-12-29T07:51:22;96586.94;;;7.19;100.00
61769;BME280;47669;48.712;9.016;2023-12-29T07:53:47;96594.19;;;7.17;100.00
61769;BME280;47669;48.712;9.016;2023-12-29T07:56:13;96594.63;;;7.20;100.00
61769;BME280;47669;48.712;9.016;2023-12-29T07:58:38;96592.81;;;7.21;100.00
61769;BME280;47669;48.712;9.016;2023-12-29T08:01:03;96592.63;;;7.22;100.00
61769;BME280;47669;48.712;9.016;2023-12-29T08:03:29;96599.88;;;7.20;100.00
61769;BME280;47669;48.712;9.016;2023-12-29T08:05:54;96609.78;;;7.18;100.00
61769;BME280;47669;48.712;9.016;2023-12-29T08:08:19;96610.41;;;7.20;100.00
61769;BME280;47669;48.712;9.016;2023-12-29T08:10:45;96613.03;;;7.20;100.00
61769;BME280;47669;48.712;9.016;2023-12-29T08:13:10;96607.78;;;7.20;100.00
61769;BME280;47669;48.712;9.016;2023-12-29T08:15:35;96606.56;;;7.23;100.00
61769;BME280;47669;48.712;9.016;2023-12-29T08:18:02;96610.22;;;7.22;100.00
61769;BME280;47669;48.712;9.016;2023-12-29T08:20:27;96610.63;;;7.25;100.00
61769;BME280;47669;48.712;9.016;2023-12-29T08:22:53;96613.09;;;7.27;100.00
61769;BME280;47669;48.712;9.016;2023-12-29T08:25:19;96614.34;;;7.31;100.00
61769;BME280;47669;48.712;9.016;2023-12-29T08:27:44;96626.47;;;7.32;100.00
61769;BME280;47669;48.712;9.016;2023-12-29T08:30:10;96614.16;;;7.32;100.00
61769;BME280;47669;48.712;9.016;2023-12-29T08:32:35;96610.97;;;7.37;100.00
61769;BME280;47669;48.712;9.016;2023-12-29T08:35:01;96611.78;;;7.38;100.00
61769;BME280;47669;48.712;9.016;2023-12-29T08:37:26;96615.84;;;7.40;100.00
61769;BME280;47669;48.712;9.016;2023-12-29T08:39:52;96615.84;;;7.40;100.00
61769;BME280;47669;48.712;9.016;2023-12-29T08:42:17;96612.41;;;7.40;100.00
61769;BME280;47669;48.712;9.016;2023-12-29T08:44:42;96614.84;;;7.41;100.00
61769;BME280;47669;48.712;9.016;2023-12-29T08:47:08;96613.03;;;7.42;100.00
61769;BME280;47669;48.712;9.016;2023-12-29T08:49:37;96620.34;;;7.46;100.00
61769;BME280;47669;48.712;9.016;2023-12-29T08:52:03;96619.34;;;7.47;100.00
61769;BME280;47669;48.712;9.016;2023-12-29T08:54:28;96617.53;;;7.48;100.00
61769;BME280;47669;48.712;9.016;2023-12-29T08:56:53;96623.78;;;7.47;100.00
61769;BME280;47669;48.712;9.016;2023-12-29T08:59:19;96615.88;;;7.47;100.00
61769;BME280;47669;48.712;9.016;2023-12-29T09:01:44;96617.34;;;7.49;100.00
61769;BME280;47669;48.712;9.016;2023-12-29T09:04:09;96617.13;;;7.51;100.00
61769;BME280;47669;48.712;9.016;2023-12-29T09:06:34;96623.41;;;7.50;100.00
61769;BME280;47669;48.712;9.016;2023-12-29T09:09:00;96618.78;;;7.52;100.00
61769;BME280;47669;48.712;9.016;2023-12-29T09:11:25;96617.44;;;7.63;100.00
61769;BME280;47669;48.712;9.016;2023-12-29T09:13:51;96615.63;;;7.63;100.00
61769;BME280;47669;48.712;9.016;2023-12-29T09:16:17;96620.53;;;7.66;100.00
61769;BME280;47669;48.712;9.016;2023-12-29T09:18:42;96622.38;;;7.72;100.00
61769;BME280;47669;48.712;9.016;2023-12-29T09:21:07;96625.69;;;7.81;100.00
61769;BME280;47669;48.712;9.016;2023-12-29T09:23:32;96632.09;;;7.72;100.00
61769;BME280;47669;48.712;9.016;2023-12-29T09:25:59;96628.06;;;7.76;100.00
61769;BME280;47669;48.712;9.016;2023-12-29T09:28:24;96629.72;;;7.77;100.00
61769;BME280;47669;48.712;9.016;2023-12-29T09:30:49;96632.56;;;7.82;100.00
61769;BME280;47669;48.712;9.016;2023-12-29T09:33:15;96633.81;;;7.86;100.00
61769;BME280;47669;48.712;9.016;2023-12-29T09:35:40;96634.88;;;7.92;100.00
61769;BME280;47669;48.712;9.016;2023-12-29T09:38:05;96628.75;;;7.85;100.00
61769;BME280;47669;48.712;9.016;2023-12-29T09:40:31;96634.31;;;7.97;100.00
61769;BME280;47669;48.712;9.016;2023-12-29T09:42:58;96634.44;;;7.88;100.00
61769;BME280;47669;48.712;9.016;2023-12-29T09:45:24;96634.88;;;7.92;100.00
61769;BME280;47669;48.712;9.016;2023-12-29T09:47:51;96641.75;;;7.93;100.00
61769;BME280;47669;48.712;9.016;2023-12-29T09:50:19;96638.50;;;7.91;100.00
61769;BME280;47669;48.712;9.016;2023-12-29T09:52:48;96648.84;;;7.92;100.00
61769;BME280;47669;48.712;9.016;2023-12-29T09:55:15;96650.13;;;8.03;100.00
61769;BME280;47669;48.712;9.016;2023-12-29T09:57:40;96641.66;;;8.08;100.00
61769;BME280;47669;48.712;9.016;2023-12-29T10:00:10;96635.63;;;8.14;100.00
61769;BME280;47669;48.712;9.016;2023-12-29T10:02:36;96635.66;;;8.21;100.00
61769;BME280;47669;48.712;9.016;2023-12-29T10:05:03;96629.63;;;8.27;100.00
61769;BME280;47669;48.712;9.016;2023-12-29T10:07:32;96635.88;;;8.19;100.00
61769;BME280;47669;48.712;9.016;2023-12-29T10:10:01;96637.31;;;8.22;100.00
61769;BME280;47669;48.712;9.016;2023-12-29T10:12:27;96631.41;;;8.20;100.00
61769;BME280;47669;48.712;9.016;2023-12-29T10:22:44;96614.84;;;8.26;98.97
61769;BME280;47669;48.712;9.016;2023-12-29T10:25:13;96620.88;;;8.54;97.88
61769;BME280;47669;48.712;9.016;2023-12-29T10:27:39;96622.59;;;8.75;97.83
61769;BME280;47669;48.712;9.016;2023-12-29T10:30:09;96628.44;;;8.64;97.38
61769;BME280;47669;48.712;9.016;2023-12-29T10:32:35;96616.88;;;8.65;96.81
61769;BME280;47669;48.712;9.016;2023-12-29T10:35:10;96611.22;;;8.62;95.97
61769;BME280;47669;48.712;9.016;2023-12-29T10:37:39;96610.84;;;8.78;96.43
61769;BME280;47669;48.712;9.016;2023-12-29T10:40:05;96602.41;;;8.89;96.39
61769;BME280;47669;48.712;9.016;2023-12-29T10:42:30;96604.06;;;9.10;95.07
61769;BME280;47669;48.712;9.016;2023-12-29T10:45:06;96606.28;;;9.00;94.32
61769;BME280;47669;48.712;9.016;2023-12-29T10:47:32;96590.84;;;9.04;93.35
61769;BME280;47669;48.712;9.016;2023-12-29T10:49:59;96578.75;;;9.29;94.35
61769;BME280;47669;48.712;9.016;2023-12-29T10:52:25;96573.66;;;9.34;92.96
61769;BME280;47669;48.712;9.016;2023-12-29T10:55:03;96578.56;;;9.44;93.50
61769;BME280;47669;48.712;9.016;2023-12-29T10:57:30;96578.72;;;9.23;91.97
61769;BME280;47669;48.712;9.016;2023-12-29T10:59:55;96573.44;;;9.16;91.05
61769;BME280;47669;48.712;9.016;2023-12-29T11:02:21;96570.22;;;9.41;90.99
61769;BME280;47669;48.712;9.016;2023-12-29T11:04:46;96570.66;;;9.51;90.09
61769;BME280;47669;48.712;9.016;2023-12-29T11:07:12;96568.19;;;9.56;89.87
61769;BME280;47669;48.712;9.016;2023-12-29T11:09:38;96562.50;;;9.46;88.00
61769;BME280;47669;48.712;9.016;2023-12-29T11:12:04;96561.28;;;9.68;87.76
61769;BME280;47669;48.712;9.016;2023-12-29T11:14:31;96559.44;;;9.95;86.22
61769;BME280;47669;48.712;9.016;2023-12-29T11:16:58;96563.94;;;9.68;85.44
61769;BME280;47669;48.712;9.016;2023-12-29T11:19:27;96544.59;;;10.01;85.49
61769;BME280;47669;48.712;9.016;2023-12-29T11:21:55;96550.31;;;9.91;85.78
61769;BME280;47669;48.712;9.016;2023-12-29T11:24:21;96540.53;;;9.98;86.46
61769;BME280;47669;48.712;9.016;2023-12-29T11:26:49;96534.84;;;10.08;86.01
61769;BME280;47669;48.712;9.016;2023-12-29T11:29:15;96544.81;;;9.93;85.09
61769;BME280;47669;48.712;9.016;2023-12-29T11:31:41;96540.75;;;9.97;84.23
61769;BME280;47669;48.712;9.016;2023-12-29T11:34:13;96532.59;;;9.98;81.85
61769;BME280;47669;48.712;9.016;2023-12-29T11:36:45;96541.28;;;10.32;81.62
61769;BME280;47669;48.712;9.016;2023-12-29T11:42:27;96539.47;;;10.33;79.18
61769;BME280;47669;48.712;9.016;2023-12-29T11:44:55;96543.88;;;10.39;79.94
61769;BME280;47669;48.712;9.016;2023-12-29T11:47:37;96536.41;;;10.36;79.80
61769;BME280;47669;48.712;9.016;2023-12-29T11:50:03;96540.88;;;10.22;78.38
61769;BME280;47669;48.712;9.016;2023-12-29T11:52:35;96534.19;;;10.19;77.83
61769;BME280;47669;48.712;9.016;2023-12-29T11:55:11;96531.88;;;10.43;77.90
61769;BME280;47669;48.712;9.016;2023-12-29T11:57:37;96532.72;;;10.37;78.86
61769;BME280;47669;48.712;9.016;2023-12-29T12:00:05;96527.91;;;10.21;76.78
61769;BME280;47669;48.712;9.016;2023-12-29T12:02:31;96526.47;;;10.25;76.75
61769;BME280;47669;48.712;9.016;2023-12-29T12:04:57;96525.25;;;10.21;76.69
61769;BME280;47669;48.712;9.016;2023-12-29T12:09:51;96530.13;;;10.17;76.12
61769;BME280;47669;48.712;9.016;2023-12-29T12:12:40;96523.63;;;10.33;75.32
61769;BME280;47669;48.712;9.016;2023-12-29T12:18:06;96508.34;;;10.42;75.43
61769;BME280;47669;48.712;9.016;2023-12-29T12:20:33;96503.94;;;10.67;75.76
61769;BME280;47669;48.712;9.016;2023-12-29T12:22:59;96504.91;;;10.73;74.24
61769;BME280;47669;48.712;9.016;2023-12-29T12:25:26;96502.59;;;10.51;74.02
61769;BME280;47669;48.712;9.016;2023-12-29T12:27:55;96495.13;;;10.42;74.15
61769;BME280;47669;48.712;9.016;2023-12-29T12:30:21;96493.09;;;10.37;74.32
61769;BME280;47669;48.712;9.016;2023-12-29T12:32:56;96488.22;;;10.41;74.42
61769;BME280;47669;48.712;9.016;2023-12-29T12:35:21;96491.47;;;10.43;74.77
61769;BME280;47669;48.712;9.016;2023-12-29T12:37:47;96487.53;;;10.58;73.77
61769;BME280;47669;48.712;9.016;2023-12-29T12:40:24;96474.06;;;10.98;73.63
61769;BME280;47669;48.712;9.016;2023-12-29T12:42:50;96476.75;;;11.17;72.55
61769;BME280;47669;48.712;9.016;2023-12-29T12:45:20;96471.78;;;11.27;72.47
61769;BME280;47669;48.712;9.016;2023-12-29T12:47:51;96466.44;;;11.09;73.74
61769;BME280;47669;48.712;9.016;2023-12-29T12:50:17;96471.41;;;10.98;72.20
61769;BME280;47669;48.712;9.016;2023-12-29T12:52:43;96467.59;;;10.88;72.75
61769;BME280;47669;48.712;9.016;2023-12-29T12:55:09;96474.31;;;10.90;72.95
61769;BME280;47669;48.712;9.016;2023-12-29T12:57:36;96488.88;;;10.99;73.09
61769;BME280;47669;48.712;9.016;2023-12-29T13:00:02;96482.41;;;10.95;72.05
61769;BME280;47669;48.712;9.016;2023-12-29T13:02:28;96484.63;;;11.24;70.79
61769;BME280;47669;48.712;9.016;2023-12-29T13:04:55;96482.16;;;11.04;72.31
61769;BME280;47669;48.712;9.016;2023-12-29T13:07:21;96500.53;;;10.92;69.76
61769;BME280;47669;48.712;9.016;2023-12-29T13:09:47;96493.66;;;10.52;71.56
61769;BME280;47669;48.712;9.016;2023-12-29T13:12:15;96494.72;;;10.38;71.66
61769;BME280;47669;48.712;9.016;2023-12-29T13:14:41;96494.72;;;10.38;70.83
61769;BME280;47669;48.712;9.016;2023-12-29T13:19:33;96499.22;;;10.37;71.54
61769;BME280;47669;48.712;9.016;2023-12-29T13:21:59;96507.75;;;10.26;71.24
61769;BME280;47669;48.712;9.016;2023-12-29T13:24:25;96500.84;;;10.32;71.09